Time;durP1;ratioP1;P1;durP2;ratioP2;P2;SDS_P1;SDS_P2;PMS_P1;PMS_P2;Temp;Humidity;BMP_temperature;BMP_pressure;BME280_temperature;BME280_humidity;BME280_pressure;Samples;Min_cycle;Max_cycle;Signal;HPM_P1;HPM_P2
2022/04/24 00:00:33;;;;;;;0.10;0.10;;;;;;;;;;5076547;28;20423;-73
2022/04/24 00:02:59;;;;;;;0.10;0.10;;;;;;;;;;5095610;28;20204;-72
2022/04/24 00:05:25;;;;;;;0.10;0.10;;;;;;;;;;5075895;28;20324;-72
2022/04/24 00:07:53;;;;;;;0.10;0.10;;;;;;;;;;5096081;28;20332;-72
2022/04/24 00:10:19;;;;;;;0.10;0.10;;;;;;;;;;5075106;28;20275;-72
2022/04/24 00:12:46;;;;;;;0.10;0.10;;;;;;;;;;5097079;28;20207;-72
2022/04/24 00:15:12;;;;;;;0.10;0.10;;;;;;;;;;5073652;28;20204;-73
2022/04/24 00:17:39;;;;;;;0.10;0.10;;;;;;;;;;5097318;28;20211;-72
2022/04/24 00:20:06;;;;;;;0.10;0.10;;;;;;;;;;5080334;28;20223;-73
2022/04/24 00:22:32;;;;;;;0.10;0.10;;;;;;;;;;5098061;28;20222;-73
2022/04/24 00:24:59;;;;;;;0.10;0.10;;;;;;;;;;5082937;28;20196;-73
2022/04/24 00:27:26;;;;;;;0.10;0.10;;;;;;;;;;5088666;28;20287;-71
2022/04/24 00:29:52;;;;;;;0.10;0.10;;;;;;;;;;5082896;28;20241;-73
2022/04/24 00:32:18;;;;;;;0.10;0.10;;;;;;;;;;5088354;28;20266;-72
2022/04/24 00:34:44;;;;;;;0.10;0.10;;;;;;;;;;5082742;28;20222;-73
2022/04/24 00:37:11;;;;;;;0.10;0.10;;;;;;;;;;5088166;28;20246;-72
2022/04/24 00:39:37;;;;;;;0.10;0.10;;;;;;;;;;5082770;28;20204;-72
2022/04/24 00:42:09;;;;;;;0.10;0.10;;;;;;;;;;5087775;28;20603;-72
2022/04/24 00:44:35;;;;;;;0.10;0.10;;;;;;;;;;5082917;28;20483;-72
2022/04/24 00:47:02;;;;;;;0.10;0.10;;;;;;;;;;5087688;28;20250;-73
2022/04/24 00:49:29;;;;;;;0.10;0.10;;;;;;;;;;5083113;28;20238;-73
2022/04/24 00:51:57;;;;;;;0.10;0.10;;;;;;;;;;5086748;28;20242;-72
2022/04/24 00:54:23;;;;;;;0.10;0.10;;;;;;;;;;5083627;28;20289;-72
2022/04/24 00:56:50;;;;;;;0.10;0.10;;;;;;;;;;5086092;28;20418;-73
2022/04/24 00:59:17;;;;;;;0.10;0.10;;;;;;;;;;5084152;28;20207;-73
2022/04/24 01:01:44;;;;;;;0.10;0.10;;;;;;;;;;5085158;28;20250;-73
2022/04/24 01:04:11;;;;;;;0.10;0.10;;;;;;;;;;5085326;28;20394;-72
2022/04/24 01:06:40;;;;;;;0.10;0.10;;;;;;;;;;5084256;28;20305;-73
2022/04/24 01:09:10;;;;;;;0.10;0.10;;;;;;;;;;5085833;28;20234;-73
2022/04/24 01:11:37;;;;;;;0.10;0.10;;;;;;;;;;5084510;28;20248;-73
2022/04/24 01:14:03;;;;;;;0.10;0.10;;;;;;;;;;5085942;28;20249;-72
2022/04/24 01:16:30;;;;;;;0.10;0.10;;;;;;;;;;5083202;28;20240;-72
2022/04/24 01:18:58;;;;;;;0.10;0.10;;;;;;;;;;5086964;28;20249;-72
2022/04/24 01:21:26;;;;;;;0.10;0.10;;;;;;;;;;5082477;28;20236;-72
2022/04/24 01:23:52;;;;;;;0.10;0.10;;;;;;;;;;5087756;28;20605;-73
2022/04/24 01:26:18;;;;;;;0.10;0.10;;;;;;;;;;5081800;28;20246;-73
2022/04/24 01:28:45;;;;;;;0.10;0.10;;;;;;;;;;5088522;28;20206;-73
2022/04/24 01:31:11;;;;;;;0.10;0.10;;;;;;;;;;5084020;28;20264;-74
2022/04/24 01:33:37;;;;;;;0.10;0.10;;;;;;;;;;5093315;28;20218;-73
2022/04/24 01:36:04;;;;;;;0.10;0.10;;;;;;;;;;5083592;28;20243;-73
2022/04/24 01:38:32;;;;;;;0.10;0.10;;;;;;;;;;5094080;28;20223;-73
2022/04/24 01:40:58;;;;;;;0.10;0.10;;;;;;;;;;5082804;28;20278;-72
2022/04/24 01:43:24;;;;;;;0.10;0.10;;;;;;;;;;5094620;28;20210;-73
2022/04/24 01:45:51;;;;;;;0.10;0.10;;;;;;;;;;5081908;28;20273;-73
2022/04/24 01:48:17;;;;;;;2.63;2.53;;;;;;;;;;5095701;28;20373;-73
2022/04/24 01:50:43;;;;;;;0.10;0.10;;;;;;;;;;5080800;28;20503;-72
2022/04/24 01:53:09;;;;;;;0.10;0.10;;;;;;;;;;5096488;28;20198;-73
2022/04/24 01:55:37;;;;;;;0.10;0.10;;;;;;;;;;5079811;28;20277;-72
2022/04/24 01:58:03;;;;;;;0.10;0.10;;;;;;;;;;5097425;28;20207;-72
2022/04/24 02:00:30;;;;;;;0.10;0.10;;;;;;;;;;5078626;28;20240;-73
2022/04/24 02:02:56;;;;;;;0.10;0.10;;;;;;;;;;5097952;28;20204;-72
2022/04/24 02:05:22;;;;;;;0.10;0.10;;;;;;;;;;5077548;28;20278;-73
2022/04/24 02:07:49;;;;;;;0.10;0.10;;;;;;;;;;5098961;28;20247;-74
2022/04/24 02:10:15;;;;;;;0.10;0.10;;;;;;;;;;5076761;28;20213;-73
2022/04/24 02:12:44;;;;;;;0.10;0.10;;;;;;;;;;5099903;28;20213;-73
2022/04/24 02:15:10;;;;;;;0.10;0.10;;;;;;;;;;5075651;28;20436;-73
2022/04/24 02:17:37;;;;;;;0.10;0.10;;;;;;;;;;5100204;28;20268;-73
2022/04/24 02:20:03;;;;;;;0.10;0.10;;;;;;;;;;5085229;28;20206;-73
2022/04/24 02:22:31;;;;;;;0.10;0.10;;;;;;;;;;5090663;28;20233;-74
2022/04/24 02:24:57;;;;;;;0.10;0.10;;;;;;;;;;5085092;28;20215;-73
2022/04/24 02:27:24;;;;;;;0.13;0.13;;;;;;;;;;5090562;28;20232;-71
2022/04/24 02:29:51;;;;;;;0.10;0.10;;;;;;;;;;5084820;28;20200;-74
2022/04/24 02:32:17;;;;;;;0.10;0.10;;;;;;;;;;5090769;28;20241;-72
2022/04/24 02:34:44;;;;;;;0.10;0.10;;;;;;;;;;5085165;28;20203;-72
2022/04/24 02:37:10;;;;;;;0.10;0.10;;;;;;;;;;5090683;28;20570;-72
2022/04/24 02:39:36;;;;;;;0.10;0.10;;;;;;;;;;5084776;28;20209;-72
2022/04/24 02:42:03;;;;;;;0.10;0.10;;;;;;;;;;5089428;28;20302;-71
2022/04/24 02:44:29;;;;;;;0.10;0.10;;;;;;;;;;5084951;28;20204;-72
2022/04/24 02:46:56;;;;;;;0.10;0.10;;;;;;;;;;5089002;28;20283;-72
2022/04/24 02:49:23;;;;;;;0.10;0.10;;;;;;;;;;5086021;28;20208;-72
2022/04/24 02:51:49;;;;;;;0.10;0.10;;;;;;;;;;5088263;28;20613;-72
2022/04/24 02:54:15;;;;;;;0.10;0.10;;;;;;;;;;5086747;28;20574;-72
2022/04/24 02:56:41;;;;;;;0.10;0.10;;;;;;;;;;5087012;28;20239;-73
2022/04/24 02:59:08;;;;;;;0.47;0.47;;;;;;;;;;5087876;28;20204;-72
2022/04/24 03:01:34;;;;;;;0.10;0.10;;;;;;;;;;5085799;28;20236;-72
2022/04/24 03:04:02;;;;;;;0.10;0.10;;;;;;;;;;5088582;28;20204;-72
2022/04/24 03:06:28;;;;;;;0.10;0.10;;;;;;;;;;5085047;28;20274;-74
2022/04/24 03:08:55;;;;;;;0.10;0.10;;;;;;;;;;5089190;28;20435;-75
2022/04/24 03:11:21;;;;;;;4.07;3.70;;;;;;;;;;5083846;28;20336;-76
2022/04/24 03:13:47;;;;;;;0.10;0.10;;;;;;;;;;5089660;28;20267;-76
2022/04/24 03:16:13;;;;;;;0.10;0.10;;;;;;;;;;5083055;28;20243;-76
2022/04/24 03:18:40;;;;;;;0.20;0.20;;;;;;;;;;5090712;28;20356;-76
2022/04/24 03:21:07;;;;;;;0.10;0.10;;;;;;;;;;5081989;28;20254;-75
2022/04/24 03:23:34;;;;;;;0.10;0.10;;;;;;;;;;5091791;28;20211;-76
2022/04/24 03:26:00;;;;;;;0.10;0.10;;;;;;;;;;5081101;28;20620;-76
2022/04/24 03:28:26;;;;;;;0.10;0.10;;;;;;;;;;5092489;28;20214;-76
2022/04/24 03:30:52;;;;;;;0.10;0.10;;;;;;;;;;5080067;28;20248;-75
2022/04/24 03:33:19;;;;;;;0.10;0.10;;;;;;;;;;5093483;28;20487;-75
2022/04/24 03:35:45;;;;;;;0.10;0.10;;;;;;;;;;5079089;28;20481;-75
2022/04/24 03:38:12;;;;;;;0.10;0.10;;;;;;;;;;5094281;28;20229;-75
2022/04/24 03:40:39;;;;;;;0.10;0.10;;;;;;;;;;5078033;28;20341;-75
2022/04/24 03:43:05;;;;;;;0.10;0.10;;;;;;;;;;5094978;28;20199;-75
2022/04/24 03:45:33;;;;;;;0.20;0.20;;;;;;;;;;5077112;28;20250;-76
2022/04/24 03:47:59;;;;;;;0.10;0.10;;;;;;;;;;5095633;28;20251;-75
2022/04/24 03:50:26;;;;;;;0.10;0.10;;;;;;;;;;5076388;28;20251;-75
2022/04/24 03:52:52;;;;;;;0.50;0.50;;;;;;;;;;5095628;28;20443;-74
2022/04/24 03:55:19;;;;;;;0.10;0.10;;;;;;;;;;5075242;28;20575;-75
2022/04/24 03:57:46;;;;;;;0.10;0.10;;;;;;;;;;5097284;28;20209;-75
2022/04/24 04:00:13;;;;;;;0.10;0.10;;;;;;;;;;5073999;28;20204;-75
2022/04/24 04:02:43;;;;;;;0.10;0.10;;;;;;;;;;5098058;28;20202;-75
2022/04/24 04:05:09;;;;;;;0.10;0.10;;;;;;;;;;5073331;28;20284;-71
2022/04/24 04:07:35;;;;;;;0.10;0.10;;;;;;;;;;5098539;28;20300;-70
2022/04/24 04:10:01;;;;;;;0.10;0.10;;;;;;;;;;5083466;28;20210;-71
2022/04/24 04:12:29;;;;;;;0.10;0.10;;;;;;;;;;5088792;28;20237;-70
2022/04/24 04:14:55;;;;;;;0.10;0.10;;;;;;;;;;5083419;28;20210;-71
2022/04/24 04:17:22;;;;;;;0.10;0.10;;;;;;;;;;5088835;28;20299;-71
2022/04/24 04:19:48;;;;;;;0.10;0.10;;;;;;;;;;5083305;28;20207;-71
2022/04/24 04:22:14;;;;;;;0.10;0.10;;;;;;;;;;5088673;28;20476;-71
2022/04/24 04:24:40;;;;;;;0.10;0.10;;;;;;;;;;5083217;28;20211;-71
2022/04/24 04:27:07;;;;;;;0.10;0.10;;;;;;;;;;5088658;28;20272;-71
2022/04/24 04:29:34;;;;;;;0.10;0.10;;;;;;;;;;5083257;28;20208;-70
2022/04/24 04:32:02;;;;;;;0.10;0.10;;;;;;;;;;5087772;28;20273;-70
2022/04/24 04:34:32;;;;;;;0.20;0.20;;;;;;;;;;5083562;28;20205;-70
2022/04/24 04:36:59;;;;;;;0.10;0.10;;;;;;;;;;5087525;28;20241;-71
2022/04/24 04:39:25;;;;;;;0.10;0.10;;;;;;;;;;5084022;28;20374;-71
2022/04/24 04:41:51;;;;;;;0.10;0.10;;;;;;;;;;5086632;28;20316;-71
2022/04/24 04:44:17;;;;;;;0.10;0.10;;;;;;;;;;5084347;28;20246;-72
2022/04/24 04:46:45;;;;;;;0.10;0.10;;;;;;;;;;5085798;28;20241;-72
2022/04/24 04:49:11;;;;;;;0.10;0.10;;;;;;;;;;5085665;28;20443;-71
2022/04/24 04:51:37;;;;;;;0.10;0.10;;;;;;;;;;5084680;28;20297;-71
2022/04/24 04:54:04;;;;;;;0.10;0.10;;;;;;;;;;5086166;28;20206;-71
2022/04/24 04:56:31;;;;;;;0.10;0.10;;;;;;;;;;5083630;28;20288;-71
2022/04/24 04:58:57;;;;;;;0.10;0.10;;;;;;;;;;5087306;28;20209;-71
2022/04/24 05:01:23;;;;;;;0.10;0.10;;;;;;;;;;5082759;28;20255;-70
2022/04/24 05:03:51;;;;;;;0.10;0.10;;;;;;;;;;5089147;28;20214;-71
2022/04/24 05:06:17;;;;;;;0.10;0.10;;;;;;;;;;5085708;28;20259;-71
2022/04/24 05:08:43;;;;;;;0.10;0.10;;;;;;;;;;5093007;28;20204;-71
2022/04/24 05:11:10;;;;;;;0.10;0.10;;;;;;;;;;5084810;28;20559;-72
2022/04/24 05:13:36;;;;;;;0.10;0.10;;;;;;;;;;5093669;28;20271;-70
2022/04/24 05:16:02;;;;;;;0.10;0.10;;;;;;;;;;5083799;28;20397;-71
2022/04/24 05:18:29;;;;;;;0.10;0.10;;;;;;;;;;5094639;28;20247;-70
2022/04/24 05:20:57;;;;;;;0.10;0.10;;;;;;;;;;5082751;28;20243;-70
2022/04/24 05:23:23;;;;;;;0.10;0.10;;;;;;;;;;5095315;28;20220;-71
2022/04/24 05:25:50;;;;;;;0.10;0.10;;;;;;;;;;5082119;28;20240;-71
2022/04/24 05:28:16;;;;;;;0.10;0.10;;;;;;;;;;5095965;28;20414;-71
2022/04/24 05:30:42;;;;;;;0.10;0.10;;;;;;;;;;5080958;28;20240;-70
2022/04/24 05:33:08;;;;;;;0.10;0.10;;;;;;;;;;5096978;28;20228;-72
2022/04/24 05:35:34;;;;;;;0.10;0.10;;;;;;;;;;5079874;28;20326;-71
2022/04/24 05:38:02;;;;;;;0.10;0.10;;;;;;;;;;5097726;28;20232;-71
2022/04/24 05:40:28;;;;;;;0.10;0.10;;;;;;;;;;5078850;28;20236;-71
2022/04/24 05:42:55;;;;;;;0.10;0.10;;;;;;;;;;5098684;28;20240;-72
2022/04/24 05:45:22;;;;;;;0.10;0.10;;;;;;;;;;5077953;28;20244;-71
2022/04/24 05:47:48;;;;;;;0.10;0.10;;;;;;;;;;5099516;28;20203;-72
2022/04/24 05:50:14;;;;;;;0.10;0.10;;;;;;;;;;5076828;28;20208;-70
2022/04/24 05:52:41;;;;;;;0.10;0.10;;;;;;;;;;5100408;28;20271;-70
2022/04/24 05:55:09;;;;;;;0.10;0.10;;;;;;;;;;5076248;28;20203;-72
2022/04/24 05:57:36;;;;;;;0.10;0.10;;;;;;;;;;5101029;28;20204;-71
2022/04/24 06:00:02;;;;;;;0.10;0.10;;;;;;;;;;5085597;28;20269;-70
2022/04/24 06:02:28;;;;;;;0.10;0.10;;;;;;;;;;5091117;28;20246;-73
2022/04/24 06:04:54;;;;;;;0.10;0.10;;;;;;;;;;5085634;28;20206;-71
2022/04/24 06:07:23;;;;;;;0.10;0.10;;;;;;;;;;5091304;28;20240;-72
2022/04/24 06:09:49;;;;;;;0.10;0.10;;;;;;;;;;5085388;28;20239;-72
2022/04/24 06:12:17;;;;;;;0.10;0.10;;;;;;;;;;5091378;28;20245;-71
2022/04/24 06:14:43;;;;;;;0.10;0.10;;;;;;;;;;5085365;28;20294;-71
2022/04/24 06:17:09;;;;;;;0.10;0.10;;;;;;;;;;5090477;28;20251;-71
2022/04/24 06:19:36;;;;;;;0.10;0.10;;;;;;;;;;5085208;28;20205;-71
2022/04/24 06:22:02;;;;;;;0.10;0.10;;;;;;;;;;5090599;28;20309;-71
2022/04/24 06:24:29;;;;;;;0.20;0.20;;;;;;;;;;5085475;28;20205;-71
2022/04/24 06:26:55;;;;;;;0.10;0.10;;;;;;;;;;5089462;28;20248;-71
2022/04/24 06:29:23;;;;;;;0.10;0.10;;;;;;;;;;5086326;28;20206;-70
2022/04/24 06:31:49;;;;;;;0.10;0.10;;;;;;;;;;5088530;28;20578;-71
2022/04/24 06:34:16;;;;;;;0.10;0.10;;;;;;;;;;5087373;28;20208;-71
2022/04/24 06:36:42;;;;;;;0.10;0.10;;;;;;;;;;5087541;28;20559;-71
2022/04/24 06:39:08;;;;;;;0.10;0.10;;;;;;;;;;5088143;28;20431;-71
2022/04/24 06:41:34;;;;;;;0.10;0.10;;;;;;;;;;5086619;28;20611;-70
2022/04/24 06:44:01;;;;;;;0.10;0.10;;;;;;;;;;5088906;28;20202;-70
2022/04/24 06:46:28;;;;;;;0.10;0.10;;;;;;;;;;5085690;28;20439;-71
2022/04/24 06:48:54;;;;;;;0.10;0.10;;;;;;;;;;5090188;28;20209;-70
2022/04/24 06:51:21;;;;;;;0.10;0.10;;;;;;;;;;5084586;28;20246;-70
2022/04/24 06:53:47;;;;;;;0.10;0.10;;;;;;;;;;5090622;28;20279;-70
2022/04/24 06:56:13;;;;;;;0.10;0.10;;;;;;;;;;5083512;28;20246;-70
2022/04/24 06:58:41;;;;;;;0.10;0.10;;;;;;;;;;5091625;28;20251;-70
2022/04/24 07:01:08;;;;;;;0.10;0.10;;;;;;;;;;5082627;28;20256;-70
2022/04/24 07:03:36;;;;;;;0.10;0.10;;;;;;;;;;5092349;28;20275;-73
2022/04/24 07:06:02;;;;;;;0.10;0.10;;;;;;;;;;5081957;28;20250;-78
2022/04/24 07:08:29;;;;;;;0.10;0.10;;;;;;;;;;5092639;28;20210;-78
2022/04/24 07:10:55;;;;;;;0.10;0.10;;;;;;;;;;5080917;28;20257;-78
2022/04/24 07:13:22;;;;;;;0.10;0.10;;;;;;;;;;5093300;28;20276;-78
2022/04/24 07:15:48;;;;;;;0.10;0.10;;;;;;;;;;5079939;28;20525;-78
2022/04/24 07:18:15;;;;;;;0.10;0.10;;;;;;;;;;5094177;28;20203;-78
2022/04/24 07:20:42;;;;;;;0.10;0.10;;;;;;;;;;5078977;28;20445;-77
2022/04/24 07:23:11;;;;;;;0.10;0.10;;;;;;;;;;5095130;28;20263;-78
2022/04/24 07:25:40;;;;;;;0.10;0.10;;;;;;;;;;5078165;28;20465;-78
2022/04/24 07:28:07;;;;;;;0.10;0.10;;;;;;;;;;5095185;28;20205;-77
2022/04/24 07:30:33;;;;;;;0.10;0.10;;;;;;;;;;5077596;28;20305;-77
2022/04/24 07:33:00;;;;;;;0.10;0.10;;;;;;;;;;5095835;28;20223;-77
2022/04/24 07:35:27;;;;;;;0.10;0.10;;;;;;;;;;5076818;28;20268;-78
2022/04/24 07:37:55;;;;;;;0.10;0.10;;;;;;;;;;5096612;28;20256;-77
2022/04/24 07:40:21;;;;;;;0.10;0.10;;;;;;;;;;5075742;28;20325;-77
2022/04/24 07:42:48;;;;;;;0.10;0.10;;;;;;;;;;5097306;28;20253;-77
2022/04/24 07:45:18;;;;;;;0.10;0.10;;;;;;;;;;5075151;28;20212;-77
2022/04/24 07:47:45;;;;;;;0.10;0.10;;;;;;;;;;5097945;28;20384;-77
2022/04/24 07:50:12;;;;;;;0.10;0.10;;;;;;;;;;5074598;28;20393;-77
2022/04/24 07:52:38;;;;;;;0.10;0.10;;;;;;;;;;5098396;28;20228;-78
2022/04/24 07:55:06;;;;;;;0.10;0.10;;;;;;;;;;5083550;28;20223;-77
2022/04/24 07:57:32;;;;;;;0.10;0.10;;;;;;;;;;5071998;28;20200;-77
2022/04/24 07:59:59;;;;;;;0.10;0.10;;;;;;;;;;5083790;28;20227;-78
2022/04/24 08:02:25;;;;;;;0.10;0.10;;;;;;;;;;5072191;28;20451;-79
2022/04/24 08:04:51;;;;;;;0.10;0.10;;;;;;;;;;5083789;28;20378;-78
2022/04/24 08:07:22;;;;;;;0.00;0.00;;;;;;;;;;5089164;28;20294;-77
2022/04/24 08:09:48;;;;;;;0.10;0.10;;;;;;;;;;5083406;28;20194;-77
2022/04/24 08:12:16;;;;;;;0.10;0.10;;;;;;;;;;5089017;28;20462;-78
2022/04/24 08:14:42;;;;;;;0.10;0.10;;;;;;;;;;5083271;28;20239;-78
2022/04/24 08:17:08;;;;;;;0.10;0.10;;;;;;;;;;5088955;28;20290;-79
2022/04/24 08:19:35;;;;;;;0.10;0.10;;;;;;;;;;5083429;28;20207;-78
2022/04/24 08:22:01;;;;;;;0.10;0.10;;;;;;;;;;5088166;28;20542;-78
2022/04/24 08:24:28;;;;;;;0.10;0.10;;;;;;;;;;5083425;28;20199;-78
2022/04/24 08:26:54;;;;;;;0.10;0.10;;;;;;;;;;5087121;28;20246;-78
2022/04/24 08:29:21;;;;;;;0.10;0.10;;;;;;;;;;5084300;28;20208;-77
2022/04/24 08:31:48;;;;;;;0.10;0.10;;;;;;;;;;5086110;28;20514;-77
2022/04/24 08:34:14;;;;;;;0.00;0.00;;;;;;;;;;5085247;28;20234;-77
2022/04/24 08:36:40;;;;;;;0.10;0.10;;;;;;;;;;5085271;28;20247;-78
2022/04/24 08:39:06;;;;;;;0.00;0.00;;;;;;;;;;5085552;28;20203;-78
2022/04/24 08:41:35;;;;;;;0.10;0.10;;;;;;;;;;5084332;28;20285;-78
2022/04/24 08:44:02;;;;;;;0.10;0.10;;;;;;;;;;5087009;28;20211;-78
2022/04/24 08:46:30;;;;;;;0.10;0.10;;;;;;;;;;5083647;28;20250;-78
2022/04/24 08:48:57;;;;;;;0.10;0.10;;;;;;;;;;5087671;28;20508;-78
2022/04/24 08:51:23;;;;;;;0.10;0.10;;;;;;;;;;5082843;28;20328;-77
2022/04/24 08:53:49;;;;;;;0.10;0.10;;;;;;;;;;5088003;28;20235;-77
2022/04/24 08:56:16;;;;;;;0.00;0.00;;;;;;;;;;5081960;28;20238;-77
2022/04/24 08:58:42;;;;;;;0.10;0.10;;;;;;;;;;5089300;28;20426;-78
2022/04/24 09:01:08;;;;;;;0.10;0.10;;;;;;;;;;5080647;28;20247;-78
2022/04/24 09:03:36;;;;;;;0.10;0.10;;;;;;;;;;5090158;28;20200;-78
2022/04/24 09:06:03;;;;;;;0.10;0.10;;;;;;;;;;5079764;28;20240;-76
2022/04/24 09:08:30;;;;;;;0.10;0.10;;;;;;;;;;5091041;28;20382;-77
2022/04/24 09:10:58;;;;;;;0.10;0.10;;;;;;;;;;5079128;28;20308;-76
2022/04/24 09:13:31;;;;;;;0.07;0.07;;;;;;;;;;5091159;28;20236;-77
2022/04/24 09:15:57;;;;;;;0.10;0.10;;;;;;;;;;5078978;28;20251;-77
2022/04/24 09:18:24;;;;;;;0.10;0.10;;;;;;;;;;5091405;28;20208;-76
2022/04/24 09:20:55;;;;;;;0.05;0.05;;;;;;;;;;5078311;28;20324;-77
2022/04/24 09:23:21;;;;;;;0.10;0.10;;;;;;;;;;5091838;28;20231;-75
2022/04/24 09:25:48;;;;;;;0.25;0.25;;;;;;;;;;5078073;28;20243;-74
2022/04/24 09:28:14;;;;;;;0.10;0.10;;;;;;;;;;5092624;28;20253;-76
2022/04/24 09:30:48;;;;;;;0.05;0.05;;;;;;;;;;5077046;28;20568;-75
2022/04/24 09:33:15;;;;;;;0.03;0.03;;;;;;;;;;5092613;28;20277;-80
2022/04/24 09:35:42;;;;;;;0.08;0.08;;;;;;;;;;5077047;28;20256;-76
2022/04/24 09:38:13;;;;;;;0.03;0.03;;;;;;;;;;5093301;28;20229;-76
2022/04/24 09:40:40;;;;;;;0.10;0.10;;;;;;;;;;5077079;28;20424;-79
2022/04/24 09:43:08;;;;;;;0.00;0.00;;;;;;;;;;5093351;28;20205;-71
2022/04/24 09:45:35;;;;;;;0.10;0.10;;;;;;;;;;5076187;28;20287;-71
2022/04/24 09:48:03;;;;;;;0.10;0.10;;;;;;;;;;5094226;28;20229;-73
2022/04/24 09:50:30;;;;;;;0.00;0.00;;;;;;;;;;5075731;28;20293;-72
2022/04/24 09:52:57;;;;;;;0.05;0.05;;;;;;;;;;5098232;28;20272;-73
2022/04/24 09:55:25;;;;;;;0.00;0.00;;;;;;;;;;5078180;28;20207;-71
2022/04/24 09:57:53;;;;;;;0.00;0.00;;;;;;;;;;5099242;28;20253;-73
2022/04/24 10:00:20;;;;;;;0.00;0.00;;;;;;;;;;5077648;28;20226;-74
2022/04/24 10:02:50;;;;;;;0.10;0.10;;;;;;;;;;5099650;28;20281;-74
2022/04/24 10:05:16;;;;;;;0.10;0.10;;;;;;;;;;5077100;28;20209;-75
2022/04/24 10:07:43;;;;;;;0.00;0.00;;;;;;;;;;5100070;28;20280;-73
2022/04/24 10:10:10;;;;;;;0.00;0.00;;;;;;;;;;5076379;28;20510;-71
2022/04/24 10:12:37;;;;;;;0.00;0.00;;;;;;;;;;5100957;28;20408;-71
2022/04/24 10:15:06;;;;;;;0.10;0.10;;;;;;;;;;5085347;28;20237;-72
2022/04/24 10:17:51;;;;;;;0.00;0.00;;;;;;;;;;5074043;28;20440;-73
2022/04/24 10:20:27;;;;;;;0.00;0.00;;;;;;;;;;5075214;28;20192;-73
2022/04/24 10:22:54;;;;;;;0.00;0.00;;;;;;;;;;5084326;28;20225;-72
2022/04/24 10:25:29;;;;;;;0.00;0.00;;;;;;;;;;5077187;28;20353;-72
2022/04/24 10:27:57;;;;;;;0.00;0.00;;;;;;;;;;5097813;28;20210;-74
2022/04/24 10:30:24;;;;;;;0.08;0.08;;;;;;;;;;5077975;28;20215;-74
2022/04/24 10:32:51;;;;;;;0.00;0.00;;;;;;;;;;5098296;28;20207;-75
2022/04/24 10:35:19;;;;;;;0.00;0.00;;;;;;;;;;5077263;28;20279;-78
2022/04/24 10:37:47;;;;;;;0.00;0.00;;;;;;;;;;5099694;28;20231;-79
2022/04/24 10:40:14;;;;;;;0.10;0.10;;;;;;;;;;5076878;28;20530;-78
2022/04/24 10:42:43;;;;;;;0.00;0.00;;;;;;;;;;5100126;28;20280;-77
2022/04/24 10:45:14;;;;;;;0.10;0.10;;;;;;;;;;5075981;28;20203;-76
2022/04/24 10:47:42;;;;;;;0.00;0.00;;;;;;;;;;5100051;28;20412;-77
2022/04/24 10:50:11;;;;;;;0.00;0.00;;;;;;;;;;5075226;28;20207;-76
2022/04/24 10:52:41;;;;;;;0.05;0.05;;;;;;;;;;5099809;28;20204;-77
2022/04/24 10:55:08;;;;;;;0.00;0.00;;;;;;;;;;5074681;28;20231;-77
2022/04/24 10:57:40;;;;;;;0.00;0.00;;;;;;;;;;5099940;28;20205;-79
2022/04/24 11:00:14;;;;;;;0.10;0.10;;;;;;;;;;5078528;28;20201;-76
2022/04/24 11:02:41;;;;;;;0.05;0.05;;;;;;;;;;5099009;28;20219;-77
2022/04/24 11:05:09;;;;;;;0.00;0.00;;;;;;;;;;5075044;28;20258;-74
2022/04/24 11:07:36;;;;;;;0.00;0.00;;;;;;;;;;5099786;28;20214;-75
2022/04/24 11:10:03;;;;;;;0.10;0.10;;;;;;;;;;5084230;28;20663;-73
2022/04/24 11:12:30;;;;;;;0.08;0.08;;;;;;;;;;5089857;28;20245;-73
2022/04/24 11:15:01;;;;;;;0.10;0.10;;;;;;;;;;5084130;28;20253;-77
2022/04/24 11:17:28;;;;;;;0.10;0.10;;;;;;;;;;5090828;28;20241;-78
2022/04/24 11:19:59;;;;;;;0.08;0.08;;;;;;;;;;5084673;28;20194;-78
2022/04/24 11:22:25;;;;;;;0.10;0.10;;;;;;;;;;5090160;28;20288;-77
2022/04/24 11:24:54;;;;;;;0.10;0.10;;;;;;;;;;5084461;28;20397;-77
2022/04/24 11:27:20;;;;;;;0.10;0.10;;;;;;;;;;5090042;28;20249;-75
2022/04/24 11:29:46;;;;;;;0.10;0.10;;;;;;;;;;5083953;28;20204;-77
2022/04/24 11:32:13;;;;;;;0.10;0.10;;;;;;;;;;5089733;28;20242;-76
2022/04/24 11:34:40;;;;;;;0.10;0.10;;;;;;;;;;5084086;28;20228;-75
2022/04/24 11:37:09;;;;;;;0.00;0.00;;;;;;;;;;5089234;28;20570;-76
2022/04/24 11:39:35;;;;;;;0.05;0.05;;;;;;;;;;5083992;28;20397;-75
2022/04/24 11:42:01;;;;;;;0.05;0.05;;;;;;;;;;5088734;28;20279;-75
2022/04/24 11:50:15;;;;;;;0.00;0.00;;;;;;;;;;5083867;28;20225;-74
2022/04/24 11:52:44;;;;;;;0.77;0.77;;;;;;;;;;5083476;28;20199;-75
2022/04/24 11:55:12;;;;;;;0.10;0.10;;;;;;;;;;5074408;28;20229;-77
2022/04/24 11:57:39;;;;;;;0.10;0.10;;;;;;;;;;5118512;28;20213;-79
2022/04/24 12:00:08;;;;;;;0.10;0.10;;;;;;;;;;5103805;28;20205;-80
2022/04/24 12:02:35;;;;;;;0.10;0.10;;;;;;;;;;5092363;28;20378;-80
2022/04/24 12:05:02;;;;;;;0.10;0.10;;;;;;;;;;5103763;28;20199;-73
2022/04/24 12:07:31;;;;;;;0.05;0.05;;;;;;;;;;5092421;28;20478;-79
2022/04/24 12:10:00;;;;;;;0.10;0.10;;;;;;;;;;5103514;28;20211;-76
2022/04/24 12:12:26;;;;;;;0.10;0.10;;;;;;;;;;5092151;28;20241;-74
2022/04/24 12:14:52;;;;;;;0.10;0.10;;;;;;;;;;5102656;28;20262;-73
2022/04/24 12:17:19;;;;;;;0.10;0.10;;;;;;;;;;5091882;28;20249;-75
2022/04/24 12:19:50;;;;;;;0.03;0.03;;;;;;;;;;5103149;28;20201;-75
2022/04/24 12:22:16;;;;;;;0.10;0.10;;;;;;;;;;5091657;28;20284;-79
2022/04/24 12:24:44;;;;;;;0.10;0.10;;;;;;;;;;5103301;28;20201;-79
2022/04/24 12:27:13;;;;;;;0.10;0.10;;;;;;;;;;5091842;28;20291;-79
2022/04/24 12:29:41;;;;;;;0.10;0.10;;;;;;;;;;5103627;28;20400;-78
2022/04/24 12:32:09;;;;;;;0.00;0.00;;;;;;;;;;5094352;28;20516;-78
2022/04/24 12:34:36;;;;;;;0.10;0.10;;;;;;;;;;5104334;28;20473;-73
2022/04/24 12:37:03;;;;;;;0.10;0.10;;;;;;;;;;5093444;28;20328;-72
2022/04/24 12:39:32;;;;;;;0.10;0.10;;;;;;;;;;5104938;28;20209;-81
2022/04/24 12:41:58;;;;;;;0.10;0.10;;;;;;;;;;5093235;28;20298;-77
2022/04/24 12:44:26;;;;;;;0.10;0.10;;;;;;;;;;5104971;28;20298;-72
2022/04/24 12:46:52;;;;;;;0.00;0.00;;;;;;;;;;5093185;28;20417;-69
2022/04/24 12:49:27;;;;;;;0.03;0.03;;;;;;;;;;5105090;28;20555;-70
2022/04/24 12:51:53;;;;;;;0.10;0.10;;;;;;;;;;5092803;28;20285;-70
2022/04/24 12:54:20;;;;;;;0.10;0.10;;;;;;;;;;5104146;28;20453;-73
2022/04/24 12:56:46;;;;;;;0.07;0.07;;;;;;;;;;5092938;28;20458;-71
2022/04/24 12:59:12;;;;;;;0.10;0.10;;;;;;;;;;5104541;28;20429;-70
2022/04/24 13:01:40;;;;;;;0.10;0.10;;;;;;;;;;5093702;28;20440;-71
2022/04/24 13:04:07;;;;;;;0.00;0.00;;;;;;;;;;5104388;28;20392;-72
2022/04/24 13:06:33;;;;;;;0.10;0.10;;;;;;;;;;5093744;28;20238;-73
2022/04/24 13:08:59;;;;;;;0.10;0.10;;;;;;;;;;5104983;28;20203;-73
2022/04/24 13:11:26;;;;;;;0.07;0.07;;;;;;;;;;5093173;28;20431;-74
2022/04/24 13:13:52;;;;;;;0.10;0.10;;;;;;;;;;5103854;28;20199;-75
2022/04/24 13:19:04;;;;;;;0.00;0.00;;;;;;;;;;5104514;28;20404;-74
2022/04/24 13:21:30;;;;;;;0.07;0.07;;;;;;;;;;5093737;28;20460;-74
2022/04/24 13:23:57;;;;;;;0.10;0.10;;;;;;;;;;5104251;28;20395;-74
2022/04/24 13:26:23;;;;;;;0.10;0.10;;;;;;;;;;5097162;28;20281;-74
2022/04/24 13:28:49;;;;;;;0.05;0.05;;;;;;;;;;5108025;28;20525;-74
2022/04/24 13:31:16;;;;;;;0.00;0.00;;;;;;;;;;5096598;28;20260;-76
2022/04/24 13:33:46;;;;;;;0.10;0.10;;;;;;;;;;5106054;28;20195;-74
2022/04/24 13:36:14;;;;;;;0.00;0.00;;;;;;;;;;5095506;28;20253;-74
2022/04/24 13:38:40;;;;;;;0.03;0.03;;;;;;;;;;5105672;28;20234;-78
2022/04/24 13:41:06;;;;;;;0.10;0.10;;;;;;;;;;5095521;28;20464;-77
2022/04/24 13:43:34;;;;;;;0.10;0.10;;;;;;;;;;5106181;28;20425;-71
2022/04/24 13:46:01;;;;;;;0.05;0.05;;;;;;;;;;5095474;28;20592;-71
2022/04/24 13:48:30;;;;;;;0.00;0.00;;;;;;;;;;5106375;28;20211;-70
2022/04/24 13:50:57;;;;;;;0.03;0.03;;;;;;;;;;5095585;28;20284;-71
2022/04/24 13:53:25;;;;;;;0.03;0.03;;;;;;;;;;5105838;28;20260;-70
2022/04/24 13:55:51;;;;;;;0.00;0.00;;;;;;;;;;5095507;28;20499;-71
2022/04/24 13:58:18;;;;;;;0.05;0.05;;;;;;;;;;5105171;28;20236;-72
2022/04/24 14:00:45;;;;;;;0.10;0.10;;;;;;;;;;5095366;28;20249;-71
2022/04/24 14:03:12;;;;;;;0.05;0.05;;;;;;;;;;5105073;28;20202;-70
2022/04/24 14:05:39;;;;;;;0.00;0.00;;;;;;;;;;5095136;28;20248;-70
2022/04/24 14:08:05;;;;;;;0.10;0.10;;;;;;;;;;5104999;28;20205;-71
2022/04/24 14:10:33;;;;;;;0.10;0.10;;;;;;;;;;5095048;28;20260;-72
2022/04/24 14:12:59;;;;;;;0.00;0.00;;;;;;;;;;5105218;28;20194;-74
2022/04/24 14:15:27;;;;;;;0.10;0.10;;;;;;;;;;5095554;28;20258;-74
2022/04/24 14:17:55;;;;;;;0.03;0.03;;;;;;;;;;5105084;28;20193;-74
2022/04/24 14:20:21;;;;;;;0.00;0.00;;;;;;;;;;5095502;28;20209;-75
2022/04/24 14:22:47;;;;;;;0.10;0.10;;;;;;;;;;5104961;28;20217;-74
2022/04/24 14:25:14;;;;;;;0.00;0.00;;;;;;;;;;5095395;28;20202;-75
2022/04/24 14:27:41;;;;;;;0.05;0.05;;;;;;;;;;5104612;28;20385;-75
2022/04/24 14:30:10;;;;;;;0.00;0.00;;;;;;;;;;5095027;28;20220;-75
2022/04/24 14:32:36;;;;;;;0.10;0.10;;;;;;;;;;5104094;28;20194;-74
2022/04/24 14:35:03;;;;;;;0.05;0.05;;;;;;;;;;5105087;28;20253;-75
2022/04/24 14:37:29;;;;;;;0.00;0.00;;;;;;;;;;5093211;28;20245;-75
2022/04/24 14:39:56;;;;;;;0.10;0.10;;;;;;;;;;5105445;28;20209;-75
2022/04/24 14:42:22;;;;;;;0.03;0.03;;;;;;;;;;5093518;28;20242;-70
2022/04/24 14:44:49;;;;;;;0.10;0.10;;;;;;;;;;5104991;28;20208;-75
2022/04/24 14:55:45;;;;;;;0.00;0.00;;;;;;;;;;5094199;28;20255;-76
2022/04/24 14:58:11;;;;;;;0.10;0.10;;;;;;;;;;5104372;28;20502;-78